Time;durP1;ratioP1;P1;durP2;ratioP2;P2;SDS_P1;SDS_P2;PMS_P1;PMS_P2;Temp;Humidity;BMP_temperature;BMP_pressure;BME280_temperature;BME280_humidity;BME280_pressure;Samples;Min_cycle;Max_cycle;Signal;HPM_P1;HPM_P2
2021/10/08 00:00:44;;;;;;;1999.90;999.90;;;;;;;9.56;47.95;102634.81;5025752;27;99274;-74
2021/10/08 00:03:12;;;;;;;1999.90;999.90;;;;;;;9.37;48.41;102629.31;5005897;28;99226;-72
2021/10/08 00:05:40;;;;;;;1999.90;999.90;;;;;;;9.24;48.78;102633.91;5021997;27;97832;-72
2021/10/08 00:08:08;;;;;;;1999.90;999.90;;;;;;;9.59;47.93;102627.94;5022887;27;97232;-74
2021/10/08 00:10:35;;;;;;;1999.90;999.90;;;;;;;9.67;47.79;102623.94;5024291;27;96817;-74
2021/10/08 00:13:03;;;;;;;1999.90;999.90;;;;;;;9.71;47.82;102636.59;5019977;27;97525;-75
2021/10/08 00:15:33;;;;;;;1999.90;999.90;;;;;;;9.75;47.47;102635.94;5020774;27;97396;-72
2021/10/08 00:18:00;;;;;;;1999.90;999.90;;;;;;;9.74;47.73;102630.50;5021585;27;97341;-72
2021/10/08 00:20:29;;;;;;;1999.90;999.90;;;;;;;9.41;48.57;102637.50;5022392;27;97140;-74
2021/10/08 00:22:56;;;;;;;1999.90;999.90;;;;;;;9.24;48.95;102633.03;5019506;27;99849;-72
2021/10/08 00:25:24;;;;;;;1999.90;999.90;;;;;;;9.57;48.07;102628.69;5023324;27;99054;-70
2021/10/08 00:27:52;;;;;;;1999.90;999.90;;;;;;;9.63;47.79;102632.59;5028818;27;96711;-71
2021/10/08 00:30:20;;;;;;;1999.90;999.90;;;;;;;9.64;47.79;102626.47;5024187;27;97009;-72
2021/10/08 00:32:49;;;;;;;1999.90;999.90;;;;;;;9.28;48.61;102629.69;5021555;27;98768;-72
2021/10/08 00:35:18;;;;;;;1999.90;999.90;;;;;;;9.11;49.06;102631.44;5007517;27;99459;-71
2021/10/08 00:37:46;;;;;;;1999.90;999.90;;;;;;;8.98;49.35;102625.31;5023974;27;97274;-71
2021/10/08 00:40:13;;;;;;;1999.90;999.90;;;;;;;8.88;49.42;102630.91;5006126;28;99127;-71
2021/10/08 00:42:41;;;;;;;1999.90;999.90;;;;;;;9.22;48.72;102626.72;5020238;27;96866;-70
2021/10/08 00:45:09;;;;;;;1999.90;999.90;;;;;;;9.33;48.12;102628.22;5021835;27;98165;-70
2021/10/08 00:47:37;;;;;;;1999.90;999.90;;;;;;;9.37;48.29;102630.19;5004307;28;97066;-71
2021/10/08 00:50:08;;;;;;;1999.90;999.90;;;;;;;9.39;48.13;102628.53;5015483;27;97006;-71
2021/10/08 00:52:36;;;;;;;1999.90;999.90;;;;;;;9.40;48.20;102625.06;5018444;27;97788;-71
2021/10/08 00:55:04;;;;;;;1999.90;999.90;;;;;;;9.41;48.13;102626.88;5022391;27;97334;-71
2021/10/08 00:57:32;;;;;;;1999.90;999.90;;;;;;;9.44;48.11;102632.38;5020440;27;97323;-70
2021/10/08 01:00:02;;;;;;;1999.90;999.90;;;;;;;9.43;48.04;102633.19;5023576;27;97553;-70
2021/10/08 01:02:31;;;;;;;1999.90;999.90;;;;;;;9.44;48.02;102623.50;5003519;28;99943;-70
2021/10/08 01:04:59;;;;;;;1999.90;999.90;;;;;;;9.45;47.95;102630.63;5014127;27;97702;-72
2021/10/08 01:07:28;;;;;;;1999.90;999.90;;;;;;;9.44;47.88;102624.41;5017975;27;97176;-72
2021/10/08 01:09:56;;;;;;;1999.90;999.90;;;;;;;9.44;47.87;102632.38;5021176;27;97328;-71
2021/10/08 01:12:24;;;;;;;1999.90;999.90;;;;;;;9.43;47.98;102625.22;5018283;27;97765;-72
2021/10/08 01:14:52;;;;;;;1999.90;999.90;;;;;;;9.02;48.86;102635.31;5026638;27;97809;-71
2021/10/08 01:17:21;;;;;;;1999.90;999.90;;;;;;;8.85;49.23;102633.41;5022164;27;98236;-72
2021/10/08 01:19:59;;;;;;;1999.90;999.90;;;;;;;8.72;49.50;102633.53;5018921;27;96723;-72
2021/10/08 01:22:27;;;;;;;1999.90;999.90;;;;;;;8.60;49.42;102630.19;5013935;27;97834;-72
2021/10/08 01:24:55;;;;;;;1999.90;999.90;;;;;;;8.51;49.88;102635.88;5022350;27;99110;-72
2021/10/08 01:27:23;;;;;;;1999.90;999.90;;;;;;;8.46;50.04;102641.69;5004900;28;97894;-73
2021/10/08 01:29:57;;;;;;;1999.90;999.90;;;;;;;8.37;49.96;102620.81;5019236;27;97166;-72
2021/10/08 01:32:36;;;;;;;1999.90;999.90;;;;;;;8.31;50.19;102627.50;5036732;27;97664;-72
2021/10/08 01:35:07;;;;;;;1999.90;999.90;;;;;;;8.24;49.97;102629.78;5022721;27;97654;-72
2021/10/08 01:37:38;;;;;;;1999.90;999.90;;;;;;;8.19;50.09;102625.94;5003322;28;97598;-72
2021/10/08 01:40:07;;;;;;;1999.90;999.90;;;;;;;8.16;50.34;102631.09;5021974;28;96846;-72
2021/10/08 01:42:38;;;;;;;1999.90;999.90;;;;;;;8.12;50.35;102626.41;5004857;28;100671;-73
2021/10/08 01:45:09;;;;;;;1999.90;999.90;;;;;;;8.08;50.49;102619.09;5022137;27;97560;-72
2021/10/08 01:47:37;;;;;;;1999.90;999.90;;;;;;;8.05;50.48;102625.94;5020700;27;97500;-72
2021/10/08 01:50:07;;;;;;;1999.90;999.90;;;;;;;8.01;50.53;102619.53;5003796;27;97353;-72
2021/10/08 01:52:39;;;;;;;1999.90;999.90;;;;;;;7.98;50.41;102624.63;5005344;28;99316;-72
2021/10/08 01:55:09;;;;;;;1999.90;999.90;;;;;;;7.95;50.64;102616.50;5005590;28;97722;-73
2021/10/08 01:57:43;;;;;;;1999.90;999.90;;;;;;;7.91;50.50;102614.47;5000925;28;96978;-72
2021/10/08 02:00:12;;;;;;;1999.90;999.90;;;;;;;7.90;50.64;102620.63;5003343;28;97181;-72
2021/10/08 02:02:40;;;;;;;1999.90;999.90;;;;;;;7.88;50.50;102621.34;5012839;27;97887;-72
2021/10/08 02:05:19;;;;;;;1999.90;999.90;;;;;;;7.86;50.54;102620.31;5002442;27;101280;-72
2021/10/08 02:07:48;;;;;;;1999.90;999.90;;;;;;;7.83;50.90;102626.38;5003557;27;97381;-72
2021/10/08 02:10:21;;;;;;;1999.90;999.90;;;;;;;7.82;50.82;102632.47;5002249;28;97593;-73
2021/10/08 02:12:49;;;;;;;1999.90;999.90;;;;;;;7.80;50.77;102628.81;5002733;28;100650;-73
2021/10/08 02:15:17;;;;;;;1999.90;999.90;;;;;;;7.76;50.94;102629.47;5022007;27;97703;-72
2021/10/08 02:17:45;;;;;;;1999.90;999.90;;;;;;;7.76;50.69;102626.81;5016363;27;97026;-72
2021/10/08 02:20:13;;;;;;;1999.90;999.90;;;;;;;7.73;50.86;102631.91;5002855;27;97594;-72
2021/10/08 02:22:42;;;;;;;1999.90;999.90;;;;;;;7.71;50.86;102625.59;5016645;27;99353;-72
2021/10/08 02:25:11;;;;;;;1999.90;999.90;;;;;;;7.69;51.01;102629.88;5003956;28;99327;-72
2021/10/08 02:27:41;;;;;;;1999.90;999.90;;;;;;;7.68;50.73;102628.06;5001565;28;97319;-73
2021/10/08 02:30:12;;;;;;;1999.90;999.90;;;;;;;7.66;51.06;102628.78;5005471;28;97400;-72
2021/10/08 02:32:40;;;;;;;1999.90;999.90;;;;;;;7.63;51.06;102628.59;4996925;28;100244;-73
2021/10/08 02:35:09;;;;;;;1999.90;999.90;;;;;;;7.56;51.19;102632.63;5003971;28;99504;-72
2021/10/08 02:37:37;;;;;;;1999.90;999.90;;;;;;;7.54;51.25;102628.97;5003914;28;97681;-72
2021/10/08 02:40:08;;;;;;;1999.90;999.90;;;;;;;7.54;51.02;102628.97;5004297;28;97408;-72
2021/10/08 02:42:36;;;;;;;1999.90;999.90;;;;;;;7.54;51.11;102628.03;5013043;27;98075;-72
2021/10/08 02:45:04;;;;;;;1999.90;999.90;;;;;;;7.54;50.96;102634.25;4999380;28;101193;-72
2021/10/08 02:47:32;;;;;;;1999.90;999.90;;;;;;;7.53;51.32;102629.75;4998443;27;97257;-71
2021/10/08 02:50:00;;;;;;;1999.90;999.90;;;;;;;7.54;51.11;102641.28;5019996;27;96878;-71
2021/10/08 02:52:28;;;;;;;1999.90;999.90;;;;;;;7.52;51.24;102641.19;5019392;27;97984;-72
2021/10/08 02:55:08;;;;;;;1999.90;999.90;;;;;;;7.51;50.96;102649.94;5005149;28;99491;-72
2021/10/08 02:57:37;;;;;;;1999.90;999.90;;;;;;;7.50;51.20;102647.19;5020414;27;96921;-72
2021/10/08 03:00:06;;;;;;;1999.90;999.90;;;;;;;7.49;51.00;102640.97;5021698;28;97264;-72
2021/10/08 03:02:34;;;;;;;1999.90;999.90;;;;;;;7.47;51.12;102647.94;5001536;28;100825;-72
2021/10/08 03:05:02;;;;;;;1999.90;999.90;;;;;;;7.46;51.28;102647.81;5003009;28;100066;-73
2021/10/08 03:07:32;;;;;;;1999.90;999.90;;;;;;;7.45;51.33;102646.94;5018337;27;96932;-72
2021/10/08 03:09:59;;;;;;;1999.90;999.90;;;;;;;7.44;51.58;102652.13;5003536;28;96768;-72
2021/10/08 03:12:29;;;;;;;1999.90;999.90;;;;;;;7.42;51.21;102644.06;5001734;28;100842;-73
2021/10/08 03:14:57;;;;;;;1999.90;999.90;;;;;;;7.42;51.28;102644.06;5000801;27;100431;-72
2021/10/08 03:17:25;;;;;;;1999.90;999.90;;;;;;;7.40;51.51;102648.31;5020861;27;97298;-72
2021/10/08 03:19:54;;;;;;;1999.90;999.90;;;;;;;7.39;51.38;102654.44;5005633;28;97302;-71
2021/10/08 03:22:22;;;;;;;1999.90;999.90;;;;;;;7.37;51.29;102644.53;5018822;27;98692;-72
2021/10/08 03:24:49;;;;;;;1999.90;999.90;;;;;;;7.37;51.33;102648.13;5002105;27;99286;-72
2021/10/08 03:27:17;;;;;;;1999.90;999.90;;;;;;;7.38;51.53;102654.34;5019994;27;97469;-73
2021/10/08 03:29:46;;;;;;;1999.90;999.90;;;;;;;7.35;51.26;102647.09;5005448;28;96814;-71
2021/10/08 03:32:14;;;;;;;1999.90;999.90;;;;;;;7.33;51.35;102653.13;5017562;27;99357;-72
2021/10/08 03:34:42;;;;;;;1999.90;999.90;;;;;;;7.32;51.36;102651.28;5021842;27;98697;-73
2021/10/08 03:37:12;;;;;;;1999.90;999.90;;;;;;;7.29;51.74;102654.66;5021970;27;96907;-72
2021/10/08 03:39:44;;;;;;;1999.90;999.90;;;;;;;7.29;51.46;102657.28;5021290;27;96951;-72
2021/10/08 03:42:14;;;;;;;1999.90;999.90;;;;;;;7.29;51.58;102653.75;4997831;27;100365;-72
2021/10/08 03:44:45;;;;;;;1999.90;999.90;;;;;;;7.28;51.84;102655.47;5016265;27;99144;-71
2021/10/08 03:47:15;;;;;;;1999.90;999.90;;;;;;;7.26;51.99;102649.16;5020860;27;96828;-71
2021/10/08 03:49:43;;;;;;;1999.90;999.90;;;;;;;7.25;51.69;102650.88;5019097;28;97208;-72
2021/10/08 03:52:11;;;;;;;1999.90;999.90;;;;;;;7.24;51.84;102653.44;5019128;28;97375;-71
2021/10/08 03:54:39;;;;;;;1999.90;999.90;;;;;;;7.22;51.54;102656.00;5019878;27;99835;-72
2021/10/08 03:57:07;;;;;;;1999.90;999.90;;;;;;;7.21;51.66;102659.47;5020387;27;97171;-72
2021/10/08 03:59:35;;;;;;;1999.90;999.90;;;;;;;7.20;51.58;102662.94;4999618;28;97534;-75
2021/10/08 04:02:03;;;;;;;1999.90;999.90;;;;;;;7.20;51.69;102659.34;4994116;28;99651;-74
2021/10/08 04:04:33;;;;;;;1999.90;999.90;;;;;;;7.20;51.86;102667.28;5003652;28;99680;-73
2021/10/08 04:07:01;;;;;;;1999.90;999.90;;;;;;;7.18;51.88;102668.97;5017457;27;97049;-73
2021/10/08 04:09:29;;;;;;;1999.90;999.90;;;;;;;7.17;51.63;102675.97;4997011;28;97057;-73
2021/10/08 04:11:56;;;;;;;1999.90;999.90;;;;;;;7.16;51.67;102670.59;5000050;28;99903;-75
2021/10/08 04:14:25;;;;;;;1999.90;999.90;;;;;;;7.16;51.92;102675.88;5000565;28;99912;-75
2021/10/08 04:16:53;;;;;;;1999.90;999.90;;;;;;;7.14;52.06;102675.75;5018948;28;97422;-74
2021/10/08 04:19:21;;;;;;;1999.90;999.90;;;;;;;7.14;51.78;102683.69;5003214;28;97205;-74
2021/10/08 04:21:51;;;;;;;1999.90;999.90;;;;;;;7.12;51.59;102677.41;4997627;28;99323;-74
2021/10/08 04:24:19;;;;;;;1999.90;999.90;;;;;;;7.11;52.15;102682.59;5019597;27;98176;-73
2021/10/08 04:26:47;;;;;;;1999.90;999.90;;;;;;;7.11;52.16;102682.59;5002279;27;97163;-73
2021/10/08 04:29:15;;;;;;;1999.90;999.90;;;;;;;7.10;51.83;102684.34;5024807;27;96913;-74
2021/10/08 04:31:43;;;;;;;1999.90;999.90;;;;;;;7.10;51.66;102691.38;5008197;28;99632;-75
2021/10/08 04:34:11;;;;;;;1999.90;999.90;;;;;;;7.09;51.98;102685.13;5022058;27;98133;-73
2021/10/08 04:36:41;;;;;;;1999.90;999.90;;;;;;;7.09;52.18;102689.53;5024621;27;97691;-75
2021/10/08 04:39:11;;;;;;;1999.90;999.90;;;;;;;7.10;51.79;102691.38;5009324;28;97281;-74
2021/10/08 04:41:39;;;;;;;1999.90;999.90;;;;;;;6.96;52.56;102692.19;5024549;27;98661;-75
2021/10/08 04:44:10;;;;;;;1999.90;999.90;;;;;;;6.93;52.17;102690.25;5006324;28;99542;-75
2021/10/08 04:46:38;;;;;;;1999.90;999.90;;;;;;;6.91;52.50;102698.88;5001738;28;97426;-72
2021/10/08 04:49:07;;;;;;;1999.90;999.90;;;;;;;6.89;52.68;102692.63;5021317;27;97677;-72
2021/10/08 04:51:35;;;;;;;1999.90;999.90;;;;;;;6.90;52.58;102702.38;5017815;27;97900;-71
2021/10/08 04:54:03;;;;;;;1999.90;999.90;;;;;;;6.89;52.22;102701.44;5019487;27;99228;-70
2021/10/08 04:56:33;;;;;;;1999.90;999.90;;;;;;;6.87;52.14;102705.72;5018012;27;97247;-71
2021/10/08 04:59:02;;;;;;;1999.90;999.90;;;;;;;6.88;52.62;102709.28;5021677;27;96813;-71
2021/10/08 05:01:30;;;;;;;1999.90;999.90;;;;;;;6.90;52.63;102702.38;5020528;27;98273;-72
2021/10/08 05:03:59;;;;;;;1999.90;999.90;;;;;;;6.89;52.36;102706.72;5002134;28;99763;-71
2021/10/08 05:06:28;;;;;;;1999.90;999.90;;;;;;;6.90;52.49;102713.88;5004589;27;97203;-72
2021/10/08 05:08:58;;;;;;;1999.90;999.90;;;;;;;6.89;52.78;102712.03;5020111;27;97753;-71
2021/10/08 05:11:25;;;;;;;1999.90;999.90;;;;;;;6.89;52.31;102716.44;5007945;28;98132;-72
2021/10/08 05:13:55;;;;;;;1999.90;999.90;;;;;;;6.89;52.55;102716.44;5021816;27;97642;-72
2021/10/08 05:16:22;;;;;;;1999.90;999.90;;;;;;;6.88;52.53;102719.88;5004132;28;97083;-72
2021/10/08 05:18:52;;;;;;;1999.90;999.90;;;;;;;6.86;52.36;102717.13;5025357;27;97225;-71
2021/10/08 05:21:23;;;;;;;1999.90;999.90;;;;;;;6.86;52.52;102713.56;5024847;27;97804;-72
2021/10/08 05:23:51;;;;;;;1999.90;999.90;;;;;;;6.86;52.41;102722.41;5004918;28;100750;-72
2021/10/08 05:26:19;;;;;;;1999.90;999.90;;;;;;;6.86;52.55;102724.13;5004631;28;98107;-71
2021/10/08 05:28:47;;;;;;;1999.90;999.90;;;;;;;6.83;52.51;102722.22;5026986;27;96742;-72
2021/10/08 05:31:16;;;;;;;1999.90;999.90;;;;;;;6.82;52.58;102725.66;5005650;27;99246;-72
2021/10/08 05:33:45;;;;;;;1999.90;999.90;;;;;;;6.79;52.58;102724.53;5006434;28;100122;-70
2021/10/08 05:36:13;;;;;;;1999.90;999.90;;;;;;;6.78;53.08;102734.22;5021995;27;97449;-73
2021/10/08 05:38:41;;;;;;;1999.90;999.90;;;;;;;6.76;53.13;102733.19;5020959;27;97185;-72
2021/10/08 05:41:11;;;;;;;1999.90;999.90;;;;;;;6.78;52.74;102738.59;5022783;27;99251;-74
2021/10/08 05:43:39;;;;;;;1999.90;999.90;;;;;;;6.78;52.80;102743.91;5005002;27;99413;-73
2021/10/08 05:46:07;;;;;;;1999.90;999.90;;;;;;;6.77;52.90;102732.38;5006518;27;97323;-71
2021/10/08 05:48:37;;;;;;;1999.90;999.90;;;;;;;6.76;53.22;102740.22;5000036;28;98265;-73
2021/10/08 05:51:16;;;;;;;1999.90;999.90;;;;;;;6.74;52.97;102740.13;5019363;27;97500;-72
2021/10/08 05:53:44;;;;;;;1999.90;999.90;;;;;;;6.76;53.29;102745.53;5020960;27;97533;-72
2021/10/08 05:56:11;;;;;;;1999.90;999.90;;;;;;;6.75;53.02;102757.81;5020133;27;97071;-72
2021/10/08 05:58:40;;;;;;;1999.90;999.90;;;;;;;6.76;53.45;102750.81;5024015;27;96941;-72
2021/10/08 06:01:08;;;;;;;1999.90;999.90;;;;;;;6.76;52.87;102750.81;5022361;28;97023;-72
2021/10/08 06:03:38;;;;;;;1999.90;999.90;;;;;;;6.75;53.08;102747.25;5017701;27;98490;-73
2021/10/08 06:06:06;;;;;;;1999.90;999.90;;;;;;;6.75;53.15;102749.88;5005671;28;97289;-73
2021/10/08 06:08:34;;;;;;;1999.90;999.90;;;;;;;6.75;53.14;102755.19;5022357;27;98081;-72
2021/10/08 06:11:02;;;;;;;1999.90;999.90;;;;;;;6.75;53.09;102751.59;5004724;28;100037;-72
2021/10/08 06:13:32;;;;;;;1999.90;999.90;;;;;;;6.74;52.92;102758.66;5020783;27;96995;-72
2021/10/08 06:16:00;;;;;;;1999.90;999.90;;;;;;;6.71;53.27;102760.13;5005293;28;97389;-72
2021/10/08 06:18:29;;;;;;;1999.90;999.90;;;;;;;6.69;53.05;102762.69;5021528;27;97475;-72
2021/10/08 06:21:00;;;;;;;1999.90;999.90;;;;;;;6.68;53.40;102768.81;5005103;28;99715;-74
2021/10/08 06:23:28;;;;;;;1999.90;999.90;;;;;;;6.68;53.72;102771.44;5002275;28;99689;-72
2021/10/08 06:25:56;;;;;;;1999.90;999.90;;;;;;;6.68;53.51;102774.09;5019455;27;97184;-73
2021/10/08 06:28:25;;;;;;;1999.90;999.90;;;;;;;6.69;53.54;102773.28;5003590;28;97500;-74
2021/10/08 06:30:54;;;;;;;1999.90;999.90;;;;;;;6.70;53.26;102771.56;5004590;28;99495;-72
2021/10/08 06:33:23;;;;;;;1999.90;999.90;;;;;;;6.71;53.50;102776.94;5003848;28;99196;-74
2021/10/08 06:35:51;;;;;;;1999.90;999.90;;;;;;;6.71;53.77;102778.66;5020565;28;97625;-73
2021/10/08 06:38:22;;;;;;;1999.90;999.90;;;;;;;6.72;53.35;102780.50;5003558;28;97099;-72
2021/10/08 06:40:52;;;;;;;1999.90;999.90;;;;;;;6.73;53.74;102777.97;5013077;28;98257;-74
2021/10/08 06:43:20;;;;;;;1999.90;999.90;;;;;;;6.72;53.50;102784.09;4995080;28;99542;-74
2021/10/08 06:45:57;;;;;;;1999.90;999.90;;;;;;;6.72;53.73;102785.81;5002912;28;97692;-75
2021/10/08 06:48:28;;;;;;;1999.90;999.90;;;;;;;6.65;54.00;102784.44;5004507;28;97545;-68
2021/10/08 06:50:57;;;;;;;1999.90;999.90;;;;;;;6.64;54.08;102781.69;5021464;27;97289;-71
2021/10/08 06:53:27;;;;;;;1999.90;999.90;;;;;;;6.66;54.30;102785.38;5002430;28;100039;-69
2021/10/08 06:55:55;;;;;;;1999.90;999.90;;;;;;;6.69;53.81;102788.25;5015805;27;97638;-71
2021/10/08 06:58:52;;;;;;;1999.90;999.90;;;;;;;6.73;53.87;102791.19;5011170;27;97488;-73
2021/10/08 07:01:21;;;;;;;1999.90;999.90;;;;;;;6.76;54.26;102786.09;5001243;28;99526;-72
2021/10/08 07:03:50;;;;;;;1999.90;999.90;;;;;;;6.78;53.76;102787.13;5013275;27;97764;-72
2021/10/08 07:06:18;;;;;;;1999.90;999.90;;;;;;;6.80;53.77;102785.50;5015414;27;96853;-72
2021/10/08 07:08:55;;;;;;;1999.90;999.90;;;;;;;6.82;53.79;102785.59;5021165;28;97609;-72
2021/10/08 07:11:23;;;;;;;1999.90;999.90;;;;;;;6.85;53.69;102783.19;5031517;27;101700;-72
2021/10/08 07:13:52;;;;;;;1999.90;999.90;;;;;;;6.88;54.27;102788.69;5003593;28;99232;-73
2021/10/08 07:16:19;;;;;;;1999.90;999.90;;;;;;;6.89;53.82;102786.13;5005346;28;96935;-72
2021/10/08 07:18:53;;;;;;;1999.90;999.90;;;;;;;6.92;53.98;102794.31;5024710;27;96867;-72
2021/10/08 07:21:22;;;;;;;1999.90;999.90;;;;;;;6.94;53.90;102797.03;5003760;28;99870;-74
2021/10/08 07:23:50;;;;;;;1999.90;999.90;;;;;;;6.93;53.99;102797.84;5011636;27;100492;-72
2021/10/08 07:26:21;;;;;;;1999.90;999.90;;;;;;;6.93;54.13;102793.47;5022205;27;97251;-73
2021/10/08 07:28:49;;;;;;;1999.90;999.90;;;;;;;6.97;54.20;102797.25;5022343;27;96886;-72
2021/10/08 07:31:17;;;;;;;1999.90;999.90;;;;;;;6.98;54.24;102801.75;5021679;27;97392;-73
2021/10/08 07:33:45;;;;;;;1999.90;999.90;;;;;;;7.00;53.88;102805.38;5021992;27;97703;-72
2021/10/08 07:36:13;;;;;;;1999.90;999.90;;;;;;;7.00;53.88;102806.31;5023465;27;97563;-73
2021/10/08 07:38:41;;;;;;;1999.90;999.90;;;;;;;7.02;54.21;102809.97;5022693;27;96932;-72
2021/10/08 07:41:10;;;;;;;1999.90;999.90;;;;;;;7.01;53.89;102807.22;5021555;27;98750;-72
2021/10/08 07:43:40;;;;;;;1999.90;999.90;;;;;;;7.03;54.35;102810.91;5016412;27;99130;-72
2021/10/08 07:46:08;;;;;;;1999.90;999.90;;;;;;;7.02;54.27;102817.91;5021951;27;97083;-72
2021/10/08 07:48:36;;;;;;;1999.90;999.90;;;;;;;7.04;54.46;102807.44;5021237;27;97433;-72
2021/10/08 07:51:04;;;;;;;1999.90;999.90;;;;;;;7.06;54.08;102808.44;5021026;27;97568;-71
2021/10/08 07:53:32;;;;;;;1999.90;999.90;;;;;;;7.08;53.96;102817.41;5022164;27;97577;-72
2021/10/08 07:56:00;;;;;;;1999.90;999.90;;;;;;;7.06;54.32;102808.44;5021716;27;96798;-73
2021/10/08 07:58:28;;;;;;;1999.90;999.90;;;;;;;7.07;54.56;102821.78;5021599;27;96807;-72
2021/10/08 08:00:59;;;;;;;1999.90;999.90;;;;;;;7.07;54.40;102820.88;5020974;27;99518;-71
2021/10/08 08:03:27;;;;;;;1999.90;999.90;;;;;;;7.11;54.45;102820.25;5025859;27;98681;-72
2021/10/08 08:05:55;;;;;;;1999.90;999.90;;;;;;;7.14;54.13;102821.38;5024261;27;97293;-72
2021/10/08 08:08:24;;;;;;;1999.90;999.90;;;;;;;7.17;54.24;102818.03;5023546;27;96968;-71
2021/10/08 08:10:52;;;;;;;1999.90;999.90;;;;;;;7.20;54.07;102826.16;5025856;27;98163;-72
2021/10/08 08:13:20;;;;;;;1999.90;999.90;;;;;;;7.23;54.52;102826.41;5004335;28;98124;-74
2021/10/08 08:15:48;;;;;;;1999.90;999.90;;;;;;;7.25;54.33;102825.66;5024159;27;97752;-71
2021/10/08 08:18:17;;;;;;;1999.90;999.90;;;;;;;7.29;54.23;102821.47;5025026;27;97334;-72
2021/10/08 08:20:45;;;;;;;1999.90;999.90;;;;;;;7.30;54.30;102818.03;5021055;27;101051;-74
2021/10/08 08:23:13;;;;;;;1999.90;999.90;;;;;;;7.32;54.11;102821.72;5022647;27;99504;-71
2021/10/08 08:25:41;;;;;;;1999.90;999.90;;;;;;;7.32;54.43;102816.41;5025742;27;96754;-73
2021/10/08 08:28:08;;;;;;;1999.90;999.90;;;;;;;7.35;54.59;102827.19;5024865;27;97285;-72
2021/10/08 08:30:39;;;;;;;1999.90;999.90;;;;;;;7.37;54.22;102824.66;5007875;27;99783;-72
2021/10/08 08:33:07;;;;;;;1999.90;999.90;;;;;;;7.39;54.23;102829.25;4998684;28;100387;-72
2021/10/08 08:35:36;;;;;;;1999.90;999.90;;;;;;;7.40;54.13;102825.75;5023965;27;97171;-73
2021/10/08 08:38:04;;;;;;;1999.90;999.90;;;;;;;7.44;54.04;102826.97;5005986;28;96930;-70
2021/10/08 08:40:32;;;;;;;1999.90;999.90;;;;;;;7.44;54.39;102825.19;5023848;27;97810;-72
2021/10/08 08:43:01;;;;;;;1999.90;999.90;;;;;;;7.47;54.20;102828.06;5024414;27;97693;-72
2021/10/08 08:45:31;;;;;;;1999.90;999.90;;;;;;;7.46;54.22;102820.91;5006071;28;97510;-72
2021/10/08 08:48:03;;;;;;;1999.90;999.90;;;;;;;7.47;54.31;102822.78;5025730;27;97205;-72
2021/10/08 08:50:33;;;;;;;1999.90;999.90;;;;;;;7.49;54.31;102817.56;5019154;27;99389;-72
2021/10/08 08:53:02;;;;;;;1999.90;999.90;;;;;;;7.54;54.35;102822.34;5023880;27;98636;-72
2021/10/08 08:55:31;;;;;;;1999.90;999.90;;;;;;;7.59;54.13;102823.56;5023746;27;98028;-72
2021/10/08 08:57:59;;;;;;;1999.90;999.90;;;;;;;7.63;54.63;102815.00;5024128;27;96890;-72
2021/10/08 09:00:27;;;;;;;1999.90;999.90;;;;;;;7.68;54.56;102810.91;5021937;27;97738;-73
2021/10/08 09:02:56;;;;;;;1999.90;999.90;;;;;;;7.74;54.22;102813.03;5022483;27;99340;-72
2021/10/08 09:05:27;;;;;;;1999.90;999.90;;;;;;;7.80;54.35;102802.84;5018903;27;97258;-71
2021/10/08 09:07:56;;;;;;;1999.90;999.90;;;;;;;7.85;54.43;102812.94;5023092;27;96908;-72
2021/10/08 09:10:28;;;;;;;1999.90;999.90;;;;;;;7.90;54.13;102815.88;5022528;27;99172;-72
2021/10/08 09:12:57;;;;;;;1999.90;999.90;;;;;;;7.96;54.24;102816.25;5024250;27;97585;-72
2021/10/08 09:15:26;;;;;;;1999.90;999.90;;;;;;;7.99;54.11;102812.06;5020241;27;97584;-71
2021/10/08 09:18:06;;;;;;;1999.90;999.90;;;;;;;8.04;54.29;102815.00;5019893;27;97271;-71
2021/10/08 09:20:34;;;;;;;1999.90;999.90;;;;;;;8.07;53.93;102810.84;5021010;28;99624;-72
2021/10/08 09:23:02;;;;;;;1999.90;999.90;;;;;;;8.12;54.21;102819.06;5022949;27;97873;-72
2021/10/08 09:25:34;;;;;;;1999.90;999.90;;;;;;;8.14;54.03;102818.34;5022290;28;97644;-73
2021/10/08 09:28:05;;;;;;;1999.90;999.90;;;;;;;8.19;53.86;102815.97;5022794;27;97200;-72
2021/10/08 09:30:38;;;;;;;1999.90;999.90;;;;;;;8.22;53.91;102816.19;5024635;27;99484;-72
2021/10/08 09:33:08;;;;;;;1999.90;999.90;;;;;;;8.28;53.84;102815.66;5023311;27;97545;-72
2021/10/08 09:35:36;;;;;;;1999.90;999.90;;;;;;;8.31;54.05;102826.44;5006643;27;96662;-73
2021/10/08 09:38:07;;;;;;;1999.90;999.90;;;;;;;8.34;53.86;102819.59;5021333;27;98777;-71
2021/10/08 09:40:39;;;;;;;1999.90;999.90;;;;;;;8.39;53.77;102825.19;5023020;27;99301;-72
2021/10/08 09:43:09;;;;;;;1999.90;999.90;;;;;;;8.41;53.83;102818.22;5002396;28;99070;-72
2021/10/08 09:45:39;;;;;;;1999.90;999.90;;;;;;;8.47;53.62;102815.97;5022405;27;97904;-72
2021/10/08 09:48:07;;;;;;;1999.90;999.90;;;;;;;8.48;53.87;102823.13;5005657;28;97630;-73
2021/10/08 09:50:36;;;;;;;1999.90;999.90;;;;;;;8.50;53.63;102826.78;5022295;27;99070;-72
2021/10/08 09:53:11;;;;;;;1999.90;999.90;;;;;;;8.50;53.93;102826.78;5022768;27;97665;-72
2021/10/08 09:55:41;;;;;;;1999.90;999.90;;;;;;;8.54;53.76;102826.16;5001596;28;96719;-72
2021/10/08 09:58:09;;;;;;;1999.90;999.90;;;;;;;8.54;53.78;102820.84;5005619;28;97353;-72
2021/10/08 10:00:40;;;;;;;1999.90;999.90;;;;;;;8.56;53.54;102816.56;5021813;27;100751;-72
2021/10/08 10:03:09;;;;;;;1999.90;999.90;;;;;;;8.60;53.89;102815.94;5021577;27;97666;-71
2021/10/08 10:05:37;;;;;;;1999.90;999.90;;;;;;;8.63;53.65;102817.03;5022607;27;96881;-72
2021/10/08 10:08:05;;;;;;;1999.90;999.90;;;;;;;8.66;53.48;102811.03;5023947;27;96765;-72
2021/10/08 10:10:34;;;;;;;1999.90;999.90;;;;;;;8.65;53.68;102810.09;5021264;27;98128;-73
2021/10/08 10:13:05;;;;;;;1999.90;999.90;;;;;;;8.67;53.60;102811.09;5022211;28;97542;-74
2021/10/08 10:15:35;;;;;;;1999.90;999.90;;;;;;;8.71;53.74;102814.88;5023694;27;97141;-75
2021/10/08 10:18:04;;;;;;;1999.90;999.90;;;;;;;8.74;53.51;102809.72;5016350;27;98571;-72
2021/10/08 10:20:35;;;;;;;1999.90;999.90;;;;;;;8.78;53.45;102809.09;5004603;28;100399;-72
2021/10/08 10:23:06;;;;;;;1999.90;999.90;;;;;;;8.82;53.52;102809.34;5024162;27;98835;-71
2021/10/08 10:25:34;;;;;;;1999.90;999.90;;;;;;;8.86;53.29;102807.84;5022968;27;97119;-72
2021/10/08 10:28:04;;;;;;;1999.90;999.90;;;;;;;8.90;53.24;102802.78;5022057;27;96902;-71
2021/10/08 10:30:32;;;;;;;1999.90;999.90;;;;;;;8.95;53.29;102803.97;5019918;27;98017;-72
2021/10/08 10:33:02;;;;;;;1999.90;999.90;;;;;;;9.01;53.23;102808.72;5018465;27;98321;-72
2021/10/08 10:35:47;;;;;;;1999.90;999.90;;;;;;;9.03;53.60;102802.69;5021613;27;96866;-72
2021/10/08 10:38:34;;;;;;;1999.90;999.90;;;;;;;9.09;53.52;102802.16;5022615;27;97530;-72
2021/10/08 10:41:21;;;;;;;1999.90;999.90;;;;;;;9.15;53.36;102800.75;5022244;28;100720;-73
2021/10/08 10:43:56;;;;;;;1999.90;999.90;;;;;;;9.23;52.98;102801.19;5015785;28;99196;-73
2021/10/08 10:46:34;;;;;;;1999.90;999.90;;;;;;;9.28;52.99;102797.06;5021047;27;97968;-73
2021/10/08 10:49:29;;;;;;;1999.90;999.90;;;;;;;9.34;53.11;102796.50;5022896;27;96891;-72
2021/10/08 10:52:17;;;;;;;1999.90;999.90;;;;;;;9.42;52.83;102804.13;5020047;28;100907;-73
2021/10/08 10:55:12;;;;;;;1999.90;999.90;;;;;;;9.47;52.81;102805.31;5004261;28;99188;-72
2021/10/08 10:57:55;;;;;;;1999.90;999.90;;;;;;;9.53;52.89;102795.06;5009693;27;96834;-73
2021/10/08 11:00:27;;;;;;;1999.90;999.90;;;;;;;9.57;52.37;102789.06;5022300;27;97023;-73
2021/10/08 11:03:04;;;;;;;1999.90;999.90;;;;;;;9.63;52.42;102791.16;5021210;28;97849;-71
2021/10/08 11:05:32;;;;;;;1999.90;999.90;;;;;;;9.67;52.34;102794.09;5024421;27;97097;-73